Oakes, ND

2:22 PM CDT on May 28, 2015 (GMT -0500)
Newark | | Change Station
CLOSE
Current Station
Personal Weather Station
Location: Britton, SD
Elevation: 1306 ft
Nearby Weather Stations

Elev 1306 ft 45.93 °N, 97.79 °W | Updated 3 seconds ago

Mostly Cloudy
Mostly Cloudy
83.6 °F
Feels Like 84 °F
N
23.0
Wind Variable Wind from SSW
Gusts 33.0 mph

Today
High -- | Low -- °F
--% Chance of Precip.
Yesterday
High -- | Low -- °F
Precip. -- in
5:47 AM 9:12 PM
Waxing Gibbous, 78% visible
Pressure 29.81 in
Visibility 10.0 miles
Clouds Clear
Heat Index 84 °F
Dew Point 61 °F
Humidity 46%
Rainfall 0.33 in
Snow Depth Not available.
UV 11 out of 12
Pollen 6.40 out of 12
Air Quality Not available.
Flu Activity Sporadic
METAR KABR 281853Z AUTO 19022G26KT 10SM CLR 28/15 A2983 RMK AO2 PK WND 16028/1824 SLP095 T02830150

More Conditions Fewer Conditions

Pressure 29.81 in
Visibility 10.0 miles
Clouds Clear
Heat Index 84 °F
Dew Point 61 °F
Humidity 46%
Rainfall 0.33 in
Snow Depth Not available.
UV 11 out of 12
Pollen 6.40 out of 12
Air Quality Not available.
Flu Activity Sporadic
METAR KABR 281853Z AUTO 19022G26KT 10SM CLR 28/15 A2983 RMK AO2 PK WND 16028/1824 SLP095 T02830150

More Conditions Fewer Conditions

10-Day Weather Forecast

Almanac

Astronomy

May. 28, 2015 Rise Set
Actual Time
Civil Twilight
Nautical Twilight
Astronomical Twilight
Moon
Length of Visible Light
Length of Day
Tomorrow will be .
, % of the Moon is Illuminated

Today's Extremes

State Highs State Lows

Community

WunderPhotos

Upload Photos

1,825,031 photos uploaded!

WunderBlogs® & News

Nearby

Air Quality

  Air Quality AQ Index Pollutant
Not available.

Snow Depth

Station Depth Elevation

Earthquake Activity

City Distance Mag. Time & Date
Minimum magnitude displayed is 2.5.

Coastal Water Temperatures

Place Temperature

Stations

Nearby Weather Stations

Station Location Temp. Windchill Dew Point Humidity Wind Precip. Elev Updated Type